Time;durP1;ratioP1;P1;durP2;ratioP2;P2;SDS_P1;SDS_P2;PMS_P1;PMS_P2;Temp;Humidity;BMP_temperature;BMP_pressure;BME280_temperature;BME280_humidity;BME280_pressure;Samples;Min_cycle;Max_cycle;Signal;HPM_P1;HPM_P2
2022/05/18 00:00:20;;;;;;;21.90;16.17;;;18.40;99.90;;;;;;5055384;28;20052;-79
2022/05/18 00:02:46;;;;;;;24.52;17.50;;;18.40;99.90;;;;;;5056439;28;20517;-78
2022/05/18 00:05:12;;;;;;;21.98;17.52;;;18.20;99.90;;;;;;5055098;28;20041;-78
2022/05/18 00:07:37;;;;;;;25.10;17.30;;;18.30;99.90;;;;;;5055041;28;20105;-77
2022/05/18 00:10:04;;;;;;;24.85;18.02;;;18.20;99.90;;;;;;5056254;28;20049;-78
2022/05/18 00:12:30;;;;;;;24.38;16.85;;;18.20;99.90;;;;;;5056293;28;20393;-78
2022/05/18 00:14:56;;;;;;;23.38;16.90;;;18.30;99.90;;;;;;5022206;28;20044;-78
2022/05/18 00:17:22;;;;;;;23.10;16.17;;;18.20;99.90;;;;;;5054950;28;20052;-78
2022/05/18 00:19:48;;;;;;;22.05;16.23;;;18.20;99.90;;;;;;5054373;28;20045;-78
2022/05/18 00:22:14;;;;;;;21.77;15.23;;;18.10;99.90;;;;;;5054784;28;20045;-78
2022/05/18 00:24:40;;;;;;;17.77;14.73;;;18.20;99.90;;;;;;5055822;28;20047;-77
2022/05/18 00:27:06;;;;;;;19.15;14.80;;;18.10;99.90;;;;;;5055074;28;20045;-78
2022/05/18 00:29:34;;;;;;;20.27;13.70;;;18.00;99.90;;;;;;5038740;28;20526;-77
2022/05/18 00:32:00;;;;;;;18.35;13.80;;;17.90;99.90;;;;;;5054810;28;20040;-77
2022/05/18 00:34:26;;;;;;;19.13;14.40;;;18.10;99.90;;;;;;5054611;28;20484;-77
2022/05/18 00:36:52;;;;;;;18.15;13.50;;;18.00;99.90;;;;;;5055593;28;20464;-77
2022/05/18 00:39:20;;;;;;;17.35;13.18;;;18.00;99.90;;;;;;5054410;28;20132;-78
2022/05/18 00:41:46;;;;;;;15.43;12.45;;;17.90;99.90;;;;;;5038161;28;20179;-78
2022/05/18 00:44:11;;;;;;;19.73;12.02;;;18.00;99.90;;;;;;5055514;28;20124;-78
2022/05/18 00:46:37;;;;;;;14.18;11.77;;;17.90;99.90;;;;;;5055593;28;20401;-77
2022/05/18 00:49:06;;;;;;;18.65;12.18;;;17.90;99.90;;;;;;5054915;28;20550;-77
2022/05/18 00:51:47;;;;;;;14.75;11.48;;;17.90;99.90;;;;;;5055313;28;20052;-78
2022/05/18 00:54:23;;;;;;;17.67;12.15;;;17.90;99.90;;;;;;5054248;28;20053;-77
2022/05/18 00:56:55;;;;;;;14.98;11.52;;;17.80;99.90;;;;;;5037911;28;20060;-78
2022/05/18 00:59:28;;;;;;;15.75;11.55;;;17.80;99.90;;;;;;5054284;28;20053;-77
2022/05/18 01:01:55;;;;;;;;;;;17.80;99.90;;;;;;5055258;28;20048;-78
2022/05/18 01:04:23;;;;;;;13.30;11.32;;;17.70;99.90;;;;;;5054339;28;19975;-78
2022/05/18 01:07:07;;;;;;;14.40;11.25;;;17.70;99.90;;;;;;5055330;28;20124;-77
2022/05/18 01:09:43;;;;;;;13.68;10.88;;;17.90;99.90;;;;;;5054678;28;20079;-77
2022/05/18 01:12:12;;;;;;;14.25;10.60;;;17.70;99.90;;;;;;5054040;28;20124;-77
2022/05/18 01:14:53;;;;;;;14.50;9.95;;;17.70;99.90;;;;;;5054788;28;20052;-77
2022/05/18 01:17:32;;;;;;;14.75;10.07;;;17.70;99.90;;;;;;5055125;28;20102;-77
2022/05/18 01:19:59;;;;;;;14.80;10.50;;;17.80;99.90;;;;;;5036854;28;20052;-77
2022/05/18 01:22:47;;;;;;;15.98;10.30;;;17.60;99.90;;;;;;5054162;28;20072;-77
2022/05/18 01:25:45;;;;;;;11.95;10.02;;;17.70;99.90;;;;;;5037111;28;20045;-77
2022/05/18 01:28:11;;;;;;;15.35;10.52;;;17.60;99.90;;;;;;5054011;28;20396;-78
2022/05/18 01:30:48;;;;;;;12.75;10.10;;;17.60;99.90;;;;;;5054791;28;20409;-76
2022/05/18 01:33:16;;;;;;;14.25;10.88;;;17.50;99.90;;;;;;5053527;28;20597;-78
2022/05/18 01:35:44;;;;;;;13.25;9.60;;;17.60;99.90;;;;;;5053385;28;20095;-78
2022/05/18 01:38:12;;;;;;;13.27;9.75;;;17.50;99.90;;;;;;5037425;28;20048;-77
2022/05/18 01:41:03;;;;;;;11.38;9.30;;;17.50;99.90;;;;;;5053577;28;20045;-77
2022/05/18 01:43:49;;;;;;;12.90;9.02;;;17.50;99.90;;;;;;5053366;28;20045;-77
2022/05/18 01:46:16;;;;;;;14.20;8.38;;;17.60;99.90;;;;;;5036742;28;20049;-77
2022/05/18 01:48:45;;;;;;;11.90;8.52;;;17.50;99.90;;;;;;5053908;28;20055;-77
2022/05/18 01:51:14;;;;;;;12.05;7.95;;;17.50;99.90;;;;;;5054411;28;20045;-77
2022/05/18 01:53:39;;;;;;;12.57;8.82;;;17.60;99.90;;;;;;5053254;28;20065;-77
2022/05/18 01:56:08;;;;;;;9.95;8.27;;;17.50;99.90;;;;;;5054150;28;20059;-78
2022/05/18 01:58:34;;;;;;;10.18;7.80;;;17.40;99.90;;;;;;5052856;28;20098;-77
2022/05/18 02:01:02;;;;;;;12.23;8.13;;;17.60;99.90;;;;;;5053462;28;20458;-77
2022/05/18 02:03:28;;;;;;;11.20;7.68;;;17.40;99.90;;;;;;5054622;28;20388;-77
2022/05/18 02:05:55;;;;;;;11.20;7.80;;;17.50;99.90;;;;;;5052931;28;20091;-77
2022/05/18 02:08:22;;;;;;;10.07;7.72;;;17.40;99.90;;;;;;5054001;28;20044;-77
2022/05/18 02:10:48;;;;;;;12.05;7.60;;;17.30;99.90;;;;;;5036284;28;20408;-77
2022/05/18 02:13:15;;;;;;;11.05;7.22;;;17.20;99.90;;;;;;5051927;28;20127;-77
2022/05/18 02:15:41;;;;;;;8.10;7.20;;;17.30;99.90;;;;;;5020680;28;20044;-77
2022/05/18 02:18:06;;;;;;;8.70;7.15;;;17.30;99.90;;;;;;5053954;28;20135;-76
2022/05/18 02:20:33;;;;;;;9.75;7.25;;;17.40;99.90;;;;;;5053252;28;20076;-77
2022/05/18 02:22:59;;;;;;;8.45;7.18;;;17.40;99.90;;;;;;5036296;28;20061;-77
2022/05/18 02:25:26;;;;;;;10.13;7.40;;;17.30;99.90;;;;;;5053654;28;20051;-76
2022/05/18 02:27:52;;;;;;;8.40;7.38;;;17.30;99.90;;;;;;5036372;28;20045;-77
2022/05/18 02:30:18;;;;;;;10.48;7.55;;;17.40;99.90;;;;;;5053870;28;20045;-77
2022/05/18 02:32:44;;;;;;;8.57;7.00;;;17.20;99.90;;;;;;5052846;28;20400;-77
2022/05/18 02:35:10;;;;;;;9.88;7.80;;;17.30;99.90;;;;;;5036255;28;20064;-76
2022/05/18 02:37:36;;;;;;;10.50;7.32;;;17.10;99.90;;;;;;5052276;28;20393;-77
2022/05/18 02:40:02;;;;;;;9.98;7.10;;;17.30;99.90;;;;;;5053637;28;20053;-76
2022/05/18 02:42:28;;;;;;;10.25;7.45;;;17.10;99.90;;;;;;5052392;28;20051;-78
2022/05/18 02:44:54;;;;;;;9.90;7.88;;;17.10;99.90;;;;;;5035934;28;20149;-77
2022/05/18 02:47:20;;;;;;;12.25;7.60;;;17.20;99.90;;;;;;5052367;28;20049;-77
2022/05/18 02:49:46;;;;;;;13.23;8.65;;;17.00;99.90;;;;;;5051938;28;20377;-77
2022/05/18 02:52:12;;;;;;;8.50;6.93;;;17.10;99.90;;;;;;5052133;28;20106;-76
2022/05/18 02:57:22;;;;;;;9.55;7.20;;;17.10;99.90;;;;;;5038949;28;20531;-77
2022/05/18 02:59:49;;;;;;;8.65;7.25;;;17.00;99.90;;;;;;5052478;28;20084;-77
2022/05/18 03:02:15;;;;;;;10.57;6.75;;;16.90;99.90;;;;;;5052105;28;20048;-77
2022/05/18 03:04:41;;;;;;;10.35;7.47;;;17.00;99.90;;;;;;5053196;28;20128;-77
2022/05/18 03:07:07;;;;;;;11.02;8.65;;;16.90;99.90;;;;;;5052161;28;20136;-77
2022/05/18 03:09:32;;;;;;;10.38;7.78;;;17.10;99.90;;;;;;5053117;28;20045;-77
2022/05/18 03:11:58;;;;;;;10.77;7.72;;;17.10;99.90;;;;;;5052049;28;20086;-77
2022/05/18 03:14:24;;;;;;;9.43;7.88;;;16.90;99.90;;;;;;5053371;28;20515;-77
2022/05/18 03:16:51;;;;;;;10.32;7.65;;;16.90;99.90;;;;;;5035558;28;20114;-77
2022/05/18 03:19:17;;;;;;;10.43;8.00;;;16.80;99.90;;;;;;5052821;28;20040;-78
2022/05/18 03:24:28;;;;;;;8.00;6.80;;;16.70;99.90;;;;;;5053255;28;20037;-77
2022/05/18 03:26:54;;;;;;;9.32;7.35;;;16.80;99.90;;;;;;5057171;28;20068;-78
2022/05/18 03:29:20;;;;;;;13.40;7.68;;;16.70;99.90;;;;;;5057157;28;20477;-77
2022/05/18 03:31:49;;;;;;;11.00;7.93;;;16.80;99.90;;;;;;5057201;28;20051;-78
2022/05/18 03:34:15;;;;;;;10.60;7.95;;;16.80;99.90;;;;;;5056856;28;20078;-77
2022/05/18 03:36:41;;;;;;;8.98;7.93;;;16.60;99.90;;;;;;5039288;28;20033;-77
2022/05/18 03:39:07;;;;;;;10.25;8.35;;;16.70;99.90;;;;;;5056926;28;20037;-77
2022/05/18 03:41:36;;;;;;;11.27;8.00;;;16.80;99.90;;;;;;5055792;28;20107;-77
2022/05/18 03:44:06;;;;;;;11.23;8.02;;;16.60;99.90;;;;;;5055613;28;20468;-77
2022/05/18 03:46:32;;;;;;;11.27;7.78;;;16.50;99.90;;;;;;5055943;28;20174;-77
2022/05/18 03:49:01;;;;;;;12.60;7.93;;;16.50;99.90;;;;;;5056146;28;20128;-77
2022/05/18 03:51:27;;;;;;;10.25;8.02;;;16.60;99.90;;;;;;5055887;28;20049;-76
2022/05/18 03:53:53;;;;;;;9.52;8.27;;;16.40;99.90;;;;;;5055358;28;20362;-77
2022/05/18 03:56:19;;;;;;;13.05;8.38;;;16.40;99.90;;;;;;5055469;28;20084;-77
2022/05/18 03:58:45;;;;;;;13.10;8.93;;;16.50;99.90;;;;;;5055401;28;20063;-77
2022/05/18 04:01:11;;;;;;;11.00;8.70;;;16.30;99.90;;;;;;5055624;28;20539;-77
2022/05/18 04:03:40;;;;;;;11.40;8.60;;;16.50;99.90;;;;;;5055250;28;20033;-77
2022/05/18 04:06:06;;;;;;;11.70;8.68;;;16.40;99.90;;;;;;5056602;28;20041;-77
2022/05/18 04:08:32;;;;;;;13.88;8.23;;;16.30;99.90;;;;;;5056482;28;20080;-77
2022/05/18 04:10:58;;;;;;;9.85;8.35;;;16.30;99.90;;;;;;5055511;28;20036;-77
2022/05/18 04:13:25;;;;;;;9.95;8.48;;;16.30;99.90;;;;;;5056257;28;20442;-77
2022/05/18 04:15:52;;;;;;;10.80;8.07;;;16.30;99.90;;;;;;5055400;28;20037;-77
2022/05/18 04:18:18;;;;;;;10.57;9.02;;;16.20;99.90;;;;;;5055711;28;20172;-77
2022/05/18 04:20:44;;;;;;;9.45;7.95;;;16.20;99.90;;;;;;5038690;28;20056;-77
2022/05/18 04:23:11;;;;;;;12.73;8.05;;;16.20;99.90;;;;;;5055994;28;20033;-77
2022/05/18 04:25:37;;;;;;;10.82;8.43;;;16.40;99.90;;;;;;5056082;28;20044;-77
2022/05/18 04:28:03;;;;;;;10.75;8.18;;;16.30;99.90;;;;;;5055232;28;20052;-77
2022/05/18 04:30:29;;;;;;;11.05;8.05;;;16.30;99.90;;;;;;5054706;28;20128;-77
2022/05/18 04:32:55;;;;;;;11.55;8.40;;;16.30;99.90;;;;;;5054442;28;20037;-77
2022/05/18 04:35:23;;;;;;;10.77;8.73;;;16.30;99.90;;;;;;5055180;28;20044;-77
2022/05/18 04:37:49;;;;;;;10.52;7.68;;;16.40;99.90;;;;;;5054186;28;20393;-77
2022/05/18 04:40:15;;;;;;;9.93;7.88;;;16.40;99.90;;;;;;5054830;28;20040;-78
2022/05/18 04:42:41;;;;;;;8.90;7.90;;;16.40;99.90;;;;;;5054605;28;20102;-78
2022/05/18 04:45:10;;;;;;;10.10;7.80;;;16.40;99.90;;;;;;5037818;28;20124;-79
2022/05/18 04:47:36;;;;;;;11.05;7.63;;;16.40;99.90;;;;;;5038089;28;20389;-78
2022/05/18 04:50:03;;;;;;;10.50;7.57;;;16.40;99.90;;;;;;5054147;28;20041;-78
2022/05/18 04:52:29;;;;;;;10.02;7.10;;;16.40;99.90;;;;;;5055608;28;20132;-78
2022/05/18 04:54:55;;;;;;;8.65;6.57;;;16.40;99.90;;;;;;5054815;28;20132;-78
2022/05/18 04:57:21;;;;;;;10.15;6.78;;;16.40;99.90;;;;;;5054635;28;20123;-78
2022/05/18 04:59:48;;;;;;;8.73;7.05;;;16.50;99.90;;;;;;5037561;28;20536;-78
2022/05/18 05:02:14;;;;;;;10.18;6.68;;;16.50;99.90;;;;;;5054301;28;20041;-78
2022/05/18 05:04:41;;;;;;;9.82;7.03;;;16.60;99.90;;;;;;5054393;28;20045;-78
2022/05/18 05:07:07;;;;;;;9.75;6.15;;;16.70;99.90;;;;;;5054216;28;20087;-78
2022/05/18 05:09:33;;;;;;;8.13;6.70;;;16.60;99.90;;;;;;5054372;28;20072;-78
2022/05/18 05:11:59;;;;;;;8.50;6.32;;;16.60;99.90;;;;;;5054299;28;20354;-78
2022/05/18 05:14:25;;;;;;;7.00;6.30;;;16.60;99.90;;;;;;5021100;28;20041;-79
2022/05/18 05:16:51;;;;;;;9.02;6.53;;;16.70;99.90;;;;;;5054239;28;20114;-78
2022/05/18 05:19:17;;;;;;;10.40;6.32;;;16.70;99.90;;;;;;5037325;28;20045;-78
2022/05/18 05:21:43;;;;;;;6.78;5.72;;;16.70;99.90;;;;;;5053884;28;20091;-78
2022/05/18 05:24:15;;;;;;;7.93;6.60;;;16.80;99.90;;;;;;5037623;28;20434;-78
2022/05/18 05:26:41;;;;;;;12.48;6.88;;;16.80;99.90;;;;;;5037296;28;20072;-78
2022/05/18 05:29:08;;;;;;;10.43;7.13;;;15.90;99.90;;;;;;5053793;28;20048;-78
2022/05/18 05:31:35;;;;;;;6.78;6.07;;;16.90;99.90;;;;;;5054958;28;20041;-77
2022/05/18 05:34:00;;;;;;;12.30;7.00;;;16.90;99.90;;;;;;5037033;28;20091;-79
2022/05/18 05:36:27;;;;;;;7.85;6.38;;;16.90;99.90;;;;;;5037017;28;20048;-79
2022/05/18 05:38:52;;;;;;;8.80;6.70;;;17.00;99.90;;;;;;5054755;28;20052;-79
2022/05/18 05:41:18;;;;;;;9.88;6.45;;;17.00;99.90;;;;;;5036882;28;20036;-79
2022/05/18 05:43:44;;;;;;;9.27;6.70;;;17.00;99.90;;;;;;5053246;28;20033;-79
2022/05/18 05:46:15;;;;;;;6.28;5.68;;;17.00;99.90;;;;;;5037097;28;20132;-79
2022/05/18 05:48:42;;;;;;;7.72;6.45;;;17.00;99.90;;;;;;5052788;28;20550;-78
2022/05/18 05:51:13;;;;;;;8.05;6.68;;;17.10;99.90;;;;;;5054526;28;20044;-77
2022/05/18 05:53:44;;;;;;;8.80;6.20;;;17.10;99.90;;;;;;5036520;28;20137;-77
2022/05/18 05:56:12;;;;;;;7.93;6.28;;;17.20;99.90;;;;;;5053129;28;20187;-78
2022/05/18 05:58:38;;;;;;;7.93;6.00;;;17.20;99.90;;;;;;5037092;28;20040;-77
2022/05/18 06:01:06;;;;;;;8.18;6.00;;;17.20;99.90;;;;;;5036700;28;20045;-78
2022/05/18 06:03:33;;;;;;;8.73;6.20;;;17.30;99.90;;;;;;5054560;28;20040;-77
2022/05/18 06:05:59;;;;;;;7.00;6.30;;;17.40;99.90;;;;;;5052958;28;20045;-78
2022/05/18 06:08:25;;;;;;;8.75;6.63;;;17.40;99.90;;;;;;5054125;28;20051;-76
2022/05/18 06:10:51;;;;;;;7.82;6.18;;;17.40;99.90;;;;;;5053870;28;20041;-79
2022/05/18 06:13:17;;;;;;;8.77;6.95;;;17.50;99.90;;;;;;5054063;28;20094;-79
2022/05/18 06:15:43;;;;;;;7.70;6.05;;;17.60;99.90;;;;;;5053044;28;20217;-77
2022/05/18 06:18:09;;;;;;;10.27;6.07;;;17.60;99.90;;;;;;5035540;28;20045;-78
2022/05/18 06:20:35;;;;;;;9.13;6.38;;;17.70;99.90;;;;;;5051376;28;20143;-79
2022/05/18 06:23:07;;;;;;;9.73;6.22;;;17.80;99.90;;;;;;5034850;28;20501;-78
2022/05/18 06:25:33;;;;;;;;;;;17.80;99.90;;;;;;5052028;28;20087;-78
2022/05/18 06:27:59;;;;;;;8.00;6.30;;;17.90;99.90;;;;;;5052448;28;19960;-77
2022/05/18 06:30:25;;;;;;;7.00;6.22;;;17.90;99.90;;;;;;5052685;28;20045;-78
2022/05/18 06:32:50;;;;;;;6.80;6.03;;;17.90;99.90;;;;;;5053423;28;20040;-78
2022/05/18 06:35:16;;;;;;;7.28;6.50;;;18.00;99.90;;;;;;5053634;28;20041;-78
2022/05/18 06:37:42;;;;;;;8.57;6.68;;;18.00;99.90;;;;;;5052089;28;20049;-78
2022/05/18 06:40:09;;;;;;;9.25;7.70;;;18.10;99.90;;;;;;5053632;28;20487;-78
2022/05/18 06:42:35;;;;;;;8.88;6.70;;;18.20;99.90;;;;;;5052908;28;20080;-80
2022/05/18 06:45:03;;;;;;;8.63;6.88;;;18.20;99.90;;;;;;5035732;28;20404;-77
2022/05/18 06:47:29;;;;;;;8.98;6.78;;;18.20;99.90;;;;;;5052332;28;20045;-78
2022/05/18 06:49:56;;;;;;;8.70;7.20;;;18.30;99.90;;;;;;5051771;28;20048;-77
2022/05/18 06:52:22;;;;;;;9.05;6.90;;;18.30;99.90;;;;;;5053060;28;20178;-76
2022/05/18 06:54:48;;;;;;;8.27;7.22;;;18.40;99.90;;;;;;5053409;28;20096;-77
2022/05/18 06:57:15;;;;;;;8.25;7.38;;;18.40;99.90;;;;;;5052223;28;20053;-78
2022/05/18 06:59:41;;;;;;;8.02;7.05;;;18.50;99.90;;;;;;5051683;28;20489;-78
2022/05/18 07:02:07;;;;;;;7.90;7.05;;;18.50;99.90;;;;;;5035815;28;20056;-78
2022/05/18 07:04:33;;;;;;;10.88;7.80;;;18.60;99.90;;;;;;5052479;28;20051;-78
2022/05/18 07:07:00;;;;;;;10.48;8.23;;;18.70;99.90;;;;;;5053106;28;20037;-77
2022/05/18 07:09:26;;;;;;;8.52;7.10;;;18.70;99.90;;;;;;5052224;28;20492;-78
2022/05/18 07:11:53;;;;;;;8.00;7.00;;;18.80;99.90;;;;;;5053384;28;20045;-78
2022/05/18 07:14:24;;;;;;;9.88;7.30;;;18.90;99.90;;;;;;5052448;28;20084;-78
2022/05/18 07:16:50;;;;;;;12.23;7.32;;;18.90;99.90;;;;;;5053340;28;20419;-77
2022/05/18 07:19:17;;;;;;;10.40;7.40;;;19.00;99.90;;;;;;5052122;28;20048;-78
2022/05/18 07:21:44;;;;;;;7.65;6.82;;;19.10;99.90;;;;;;5052125;28;20080;-77
2022/05/18 07:24:11;;;;;;;11.25;7.55;;;19.10;99.90;;;;;;5053324;28;20056;-78
2022/05/18 07:26:37;;;;;;;10.38;6.72;;;19.20;99.90;;;;;;5052625;28;20103;-79
2022/05/18 07:29:05;;;;;;;8.00;7.20;;;19.20;99.90;;;;;;5053517;28;20067;-79
2022/05/18 07:32:08;;;;;;;10.57;7.20;;;19.30;99.90;;;;;;5052106;28;20127;-79
2022/05/18 07:34:17;;;;;;;10.20;8.30;;;19.40;99.90;;;;;;5052917;28;20183;-78
2022/05/18 07:36:43;;;;;;;9.02;8.13;;;19.50;99.90;;;;;;5053553;28;20136;-79
2022/05/18 07:39:11;;;;;;;8.55;7.50;;;19.50;99.90;;;;;;5051891;28;20056;-79
2022/05/18 07:41:37;;;;;;;10.45;7.30;;;19.60;99.90;;;;;;5052006;28;20049;-80
2022/05/18 07:44:03;;;;;;;9.48;7.68;;;19.70;99.90;;;;;;5052984;28;20049;-80
2022/05/18 07:46:29;;;;;;;12.68;8.25;;;19.80;99.90;;;;;;5051703;28;20045;-79
2022/05/18 07:48:54;;;;;;;8.95;7.35;;;19.80;99.90;;;;;;5052644;28;20049;-81
2022/05/18 07:51:20;;;;;;;8.48;7.53;;;19.90;99.90;;;;;;5052094;28;20132;-79
2022/05/18 07:53:46;;;;;;;13.25;7.18;;;20.00;99.90;;;;;;5052480;28;20130;-78
2022/05/18 07:56:12;;;;;;;8.38;6.85;;;20.00;99.90;;;;;;5034700;28;20123;-80
2022/05/18 07:58:38;;;;;;;8.27;7.30;;;20.10;99.90;;;;;;5051293;28;20072;-77
2022/05/18 08:01:03;;;;;;;8.68;7.00;;;20.20;99.90;;;;;;5051568;28;20095;-77
2022/05/18 08:03:29;;;;;;;8.27;7.45;;;20.30;99.90;;;;;;5052385;28;20056;-76
2022/05/18 08:05:55;;;;;;;7.32;6.63;;;20.30;99.90;;;;;;5051342;28;20068;-77
2022/05/18 08:08:21;;;;;;;6.90;6.22;;;20.40;99.90;;;;;;5034649;28;20052;-76
2022/05/18 08:16:17;;;;;;;10.48;7.55;;;20.60;99.90;;;;;;5055191;28;20045;-77
2022/05/18 08:18:42;;;;;;;8.52;7.13;;;20.70;99.90;;;;;;5054325;28;20080;-76
2022/05/18 08:21:08;;;;;;;8.65;6.82;;;20.70;99.90;;;;;;5055864;28;20134;-76
2022/05/18 08:23:34;;;;;;;7.20;6.50;;;20.80;99.90;;;;;;5050018;28;20115;-78
2022/05/18 08:26:01;;;;;;;8.18;7.30;;;20.80;99.90;;;;;;5029823;28;20492;-76
2022/05/18 08:28:27;;;;;;;8.05;7.20;;;20.90;99.90;;;;;;5047774;28;20045;-75
2022/05/18 08:30:54;;;;;;;11.80;7.30;;;21.00;99.90;;;;;;5027090;28;20052;-76
2022/05/18 08:33:21;;;;;;;10.30;6.88;;;21.00;99.90;;;;;;5047765;28;20116;-75
2022/05/18 08:35:48;;;;;;;8.30;5.43;;;21.10;99.90;;;;;;5050543;28;20489;-76
2022/05/18 08:38:14;;;;;;;8.60;5.50;;;21.50;99.90;;;;;;5031457;28;20056;-79
2022/05/18 08:40:45;;;;;;;9.05;6.47;;;21.30;99.90;;;;;;5049242;28;20055;-79
2022/05/18 08:43:16;;;;;;;6.75;6.10;;;21.30;99.90;;;;;;5047947;28;20470;-77
2022/05/18 08:45:47;;;;;;;6.95;5.45;;;21.40;99.90;;;;;;5047163;28;20378;-77
2022/05/18 08:48:43;;;;;;;7.72;5.95;;;21.40;99.90;;;;;;5049422;28;20049;-77
2022/05/18 08:51:37;;;;;;;6.65;5.57;;;21.50;99.90;;;;;;5047480;28;20095;-77
2022/05/18 08:54:14;;;;;;;7.30;5.65;;;21.60;99.90;;;;;;5048613;28;20099;-77
2022/05/18 08:56:42;;;;;;;6.53;5.80;;;21.70;99.90;;;;;;5048853;28;20064;-78
2022/05/18 08:59:36;;;;;;;8.27;6.20;;;21.80;99.90;;;;;;5050527;28;20392;-78
2022/05/18 09:02:24;;;;;;;6.55;5.32;;;21.90;99.90;;;;;;5048345;28;20045;-78
2022/05/18 09:04:55;;;;;;;8.15;5.32;;;22.00;99.90;;;;;;5048284;28;20493;-78
2022/05/18 09:07:26;;;;;;;6.90;5.47;;;22.00;99.90;;;;;;5046426;28;20053;-75
2022/05/18 09:10:13;;;;;;;5.40;4.82;;;22.40;99.90;;;;;;5045753;28;20358;-75
2022/05/18 09:12:48;;;;;;;6.80;4.72;;;22.20;99.90;;;;;;5046793;28;20041;-75
2022/05/18 09:15:34;;;;;;;7.25;4.78;;;22.30;99.90;;;;;;5031974;28;20052;-75
2022/05/18 09:18:04;;;;;;;4.60;4.13;;;22.30;99.90;;;;;;5044743;28;20796;-77
2022/05/18 09:20:47;;;;;;;5.88;5.30;;;22.40;99.90;;;;;;5062326;28;20080;-77
2022/05/18 09:23:34;;;;;;;7.68;4.80;;;22.50;99.90;;;;;;5041854;28;20166;-75
2022/05/18 09:26:06;;;;;;;6.95;4.47;;;22.50;99.90;;;;;;5043295;28;20487;-75
2022/05/18 09:28:31;;;;;;;6.72;4.13;;;22.60;99.90;;;;;;5048189;28;20056;-75
2022/05/18 09:31:06;;;;;;;6.15;4.43;;;22.60;99.90;;;;;;5043683;28;20045;-75
2022/05/18 09:33:55;;;;;;;6.55;4.30;;;22.70;99.90;;;;;;5044262;28;20135;-75
2022/05/18 09:36:58;;;;;;;5.32;4.07;;;22.80;99.90;;;;;;5041170;28;20380;-75
2022/05/18 09:39:28;;;;;;;6.47;3.60;;;22.90;99.90;;;;;;5046948;28;20496;-75
2022/05/18 09:42:06;;;;;;;4.05;3.13;;;22.90;99.90;;;;;;5043480;28;20471;-75
2022/05/18 09:44:58;;;;;;;4.88;3.55;;;23.00;99.90;;;;;;5047509;28;20041;-74
2022/05/18 09:47:27;;;;;;;7.60;4.13;;;23.20;99.90;;;;;;5060823;28;20052;-75
2022/05/18 09:49:56;;;;;;;4.30;3.30;;;23.20;99.90;;;;;;5044855;28;20111;-73
2022/05/18 09:52:26;;;;;;;3.50;2.53;;;23.30;99.90;;;;;;5046429;28;20072;-74
2022/05/18 09:54:55;;;;;;;4.13;2.28;;;23.40;99.90;;;;;;5046212;28;20315;-74
2022/05/18 09:57:25;;;;;;;7.40;4.00;;;23.50;99.90;;;;;;5048708;28;20040;-74
2022/05/18 10:00:07;;;;;;;4.00;2.78;;;23.50;99.90;;;;;;5045762;28;20041;-74
2022/05/18 10:08:28;;;;;;;3.95;2.88;;;23.80;99.90;;;;;;5045374;28;20052;-75
2022/05/18 10:11:12;;;;;;;5.55;2.90;;;23.80;99.90;;;;;;5031302;28;20052;-75
2022/05/18 10:14:01;;;;;;;3.15;2.70;;;23.90;99.90;;;;;;5049559;28;20052;-75
2022/05/18 10:16:37;;;;;;;5.40;2.97;;;24.00;99.90;;;;;;5044218;28;20126;-74
2022/05/18 10:19:04;;;;;;;3.70;2.38;;;24.10;99.90;;;;;;5045393;28;20056;-74
2022/05/18 10:21:55;;;;;;;4.07;1.95;;;24.10;99.90;;;;;;5044921;28;20522;-72
2022/05/18 10:24:35;;;;;;;4.18;2.90;;;24.20;99.90;;;;;;5047850;28;20068;-74
2022/05/18 10:27:16;;;;;;;3.97;2.28;;;24.30;99.90;;;;;;5047207;28;20078;-76
2022/05/18 10:30:00;;;;;;;7.03;3.20;;;24.40;99.90;;;;;;5073540;28;20048;-76
2022/05/18 10:32:29;;;;;;;3.10;2.78;;;24.40;99.90;;;;;;5042588;28;20114;-76
2022/05/18 10:34:56;;;;;;;4.18;2.70;;;24.40;99.90;;;;;;5044740;28;20045;-75
2022/05/18 10:37:38;;;;;;;5.13;2.78;;;24.50;99.90;;;;;;5045997;28;20044;-75
2022/05/18 10:40:18;;;;;;;3.25;2.53;;;24.60;99.90;;;;;;5043266;28;20566;-75
2022/05/18 10:42:50;;;;;;;3.53;2.45;;;24.70;99.90;;;;;;5046492;28;20052;-75
2022/05/18 10:45:25;;;;;;;4.82;2.58;;;24.80;99.90;;;;;;5043414;28;20521;-76
2022/05/18 10:47:51;;;;;;;6.15;3.67;;;24.80;99.90;;;;;;5043242;28;20487;-76
2022/05/18 10:50:28;;;;;;;3.72;2.92;;;24.80;99.90;;;;;;5045135;28;20079;-76
2022/05/18 10:52:59;;;;;;;4.65;3.00;;;24.90;99.90;;;;;;5042860;28;20049;-76
2022/05/18 10:55:29;;;;;;;3.67;3.17;;;25.00;99.50;;;;;;5041879;28;20550;-77
2022/05/18 10:58:07;;;;;;;3.85;2.90;;;25.00;99.80;;;;;;5042527;28;20053;-76
2022/05/18 11:00:55;;;;;;;4.55;3.30;;;25.00;99.90;;;;;;5043382;28;20573;-76
2022/05/18 11:03:43;;;;;;;4.95;3.03;;;25.00;99.60;;;;;;5046941;28;20048;-78
2022/05/18 11:06:23;;;;;;;3.47;2.90;;;25.00;99.90;;;;;;5050806;28;20045;-76
2022/05/18 11:08:50;;;;;;;4.60;2.40;;;25.10;99.20;;;;;;5042500;28;20041;-76
2022/05/18 11:11:45;;;;;;;5.60;3.03;;;25.10;99.70;;;;;;5042346;28;20106;-76
2022/05/18 11:14:49;;;;;;;5.28;2.80;;;25.20;99.90;;;;;;5043608;28;20435;-75
2022/05/18 11:17:15;;;;;;;5.20;3.20;;;25.20;98.20;;;;;;5046978;28;20501;-78
2022/05/18 11:20:03;;;;;;;5.18;3.53;;;25.30;99.90;;;;;;5044573;28;20048;-79
2022/05/18 11:22:57;;;;;;;4.85;2.80;;;25.40;99.50;;;;;;5044785;28;20087;-78
2022/05/18 11:25:42;;;;;;;6.60;2.63;;;25.50;99.90;;;;;;5073603;28;20041;-78
2022/05/18 11:28:16;;;;;;;5.40;3.80;;;25.50;99.90;;;;;;5043152;28;20049;-77
2022/05/18 11:31:06;;;;;;;5.53;2.80;;;25.60;99.20;;;;;;5046588;28;20057;-77
2022/05/18 11:33:57;;;;;;;7.05;2.92;;;25.70;99.10;;;;;;5036039;28;20053;-78
2022/05/18 11:36:48;;;;;;;5.88;3.40;;;25.80;98.00;;;;;;5044889;28;20052;-79
2022/05/18 11:39:42;;;;;;;3.50;2.90;;;25.90;98.00;;;;;;5027984;28;20415;-78
2022/05/18 11:42:35;;;;;;;4.95;2.70;;;26.00;98.00;;;;;;5043690;28;20463;-79
2022/05/18 11:45:00;;;;;;;4.57;2.78;;;26.00;97.90;;;;;;5051067;28;20044;-80
2022/05/18 11:48:03;;;;;;;4.25;3.03;;;26.00;97.40;;;;;;5055537;28;20401;-80
2022/05/18 11:51:06;;;;;;;6.13;2.97;;;26.00;95.20;;;;;;5053120;28;20085;-79
2022/05/18 11:54:06;;;;;;;5.28;2.90;;;26.10;96.80;;;;;;5053513;28;20183;-81
2022/05/18 11:57:04;;;;;;;6.40;3.42;;;26.20;97.10;;;;;;5052384;28;20056;-80
2022/05/18 11:59:58;;;;;;;4.90;3.28;;;26.30;96.20;;;;;;5054700;28;20099;-80
2022/05/18 12:02:45;;;;;;;5.82;3.78;;;26.40;96.10;;;;;;5079932;28;20120;-77
2022/05/18 12:05:10;;;;;;;4.55;3.30;;;26.40;96.00;;;;;;5053665;28;20484;-81
2022/05/18 12:08:02;;;;;;;5.60;3.05;;;26.50;95.90;;;;;;5056462;28;20052;-79
2022/05/18 12:10:48;;;;;;;4.83;2.73;;;26.50;94.80;;;;;;5076356;28;20053;-83
2022/05/18 12:13:27;;;;;;;5.05;3.63;;;26.60;95.80;;;;;;5055386;28;20041;-82
2022/05/18 12:16:09;;;;;;;4.95;2.70;;;26.40;95.80;;;;;;5054597;28;20080;-89
2022/05/18 12:19:21;;;;;;;5.93;2.97;;;26.50;96.20;;;;;;5053979;28;20049;-90
2022/05/18 12:21:57;;;;;;;4.43;2.80;;;26.50;95.80;;;;;;5035976;28;20056;-83
2022/05/18 12:24:25;;;;;;;4.63;3.03;;;26.50;96.20;;;;;;5055926;28;20044;-89
2022/05/18 12:26:52;;;;;;;4.97;3.20;;;26.50;95.80;;;;;;5021300;28;20076;-81
2022/05/18 12:29:24;;;;;;;6.55;2.72;;;26.50;95.30;;;;;;5055932;28;20045;-74
2022/05/18 12:31:53;;;;;;;5.65;2.30;;;26.50;95.60;;;;;;5078192;28;20064;-74
2022/05/18 12:34:34;;;;;;;6.03;3.47;;;26.50;95.70;;;;;;5055404;28;20102;-76
2022/05/18 12:37:46;;;;;;;5.40;2.80;;;26.40;95.80;;;;;;5054935;28;20057;-82
2022/05/18 12:40:15;;;;;;;12.55;2.78;;;26.40;95.30;;;;;;5052937;28;20044;-77
2022/05/18 12:42:57;;;;;;;5.15;2.63;;;26.40;94.70;;;;;;5055326;28;20052;-80
2022/05/18 12:45:26;;;;;;;4.90;2.70;;;26.50;95.20;;;;;;5055637;28;20056;-84
2022/05/18 12:48:16;;;;;;;4.30;3.35;;;26.60;94.60;;;;;;5037860;28;20037;-91
2022/05/18 12:50:47;;;;;;;4.15;2.53;;;26.70;94.80;;;;;;5053469;28;20124;-80
2022/05/18 12:53:19;;;;;;;2.60;1.88;;;26.80;94.90;;;;;;5037311;28;20402;-84
2022/05/18 12:55:58;;;;;;;2.83;2.15;;;26.90;94.50;;;;;;5060300;28;20510;-78
2022/05/18 12:58:25;;;;;;;4.32;2.00;;;27.00;93.70;;;;;;5053753;28;20047;-86
2022/05/18 13:01:04;;;;;;;3.20;2.10;;;27.00;92.60;;;;;;5037571;28;20063;-82
2022/05/18 13:03:41;;;;;;;4.50;1.85;;;26.90;92.50;;;;;;5055402;28;20044;-79
2022/05/18 13:06:16;;;;;;;2.13;1.77;;;26.90;92.30;;;;;;5055687;28;20049;-81
2022/05/18 13:08:55;;;;;;;6.00;2.30;;;26.80;92.40;;;;;;5055549;28;20095;-85
2022/05/18 13:11:34;;;;;;;4.75;2.35;;;26.80;92.30;;;;;;5037919;28;20400;-82
2022/05/18 13:14:04;;;;;;;3.83;2.25;;;26.70;92.00;;;;;;5055360;28;20048;-77
2022/05/18 13:16:38;;;;;;;3.42;2.72;;;26.60;92.80;;;;;;5054484;28;20053;-80
2022/05/18 13:19:13;;;;;;;8.43;4.45;;;26.60;92.80;;;;;;5054583;28;20052;-78
2022/05/18 13:21:51;;;;;;;7.25;4.60;;;26.50;92.50;;;;;;5055676;28;20076;-82